Algonquin, Illinois
Current Conditions -  °F | °C
As of 3:52 PM on Friday 28 Nov 2014 (Local Time) from KDPA Reporting Station
Overcast Overcast  
Wind Chill: 22°   Ceiling: 1700
Heat Index: 31°   Visibility: 8mi
Dew Point: 25°   Wind: 12mph
Humidity: 79%   Direction: 150°SSE
Pressure: 29.97"   Gusts: NA
Location:  42.17°N, 88.29°W
Report Text: KDPA 282152Z 15010KT 8SM OVC017 M01/M04 A2997 RMK AO2 SLP161 T10061039
Loading
Personal Weather Stations






























Interactive Weather Map New forecast layout! Learn more

10-Day Weather Forecast

Advertisements
Track Severe Weather on mobile